Gilbertville, IA (50634)

7:36 PM CDT on August 27, 2016 (GMT -0500)
Washburn | | Change Station
Active Advisory: Flood Warning

Elev 843 ft 42.41 °N, 92.27 °W | Updated 6 minutes ago

Partly Cloudy
Partly Cloudy
74.5 °F
Feels Like 75 °F
N
0.0
Wind Variable Wind from SSW

Today
High -- | Low -- °F
--% Chance of Precip.
Yesterday
High -- | Low -- °F
Precip. -- in
Pressure 30.00 in
Visibility 10.0 miles
Clouds Few 3900 ft
Heat Index 75 °F
Dew Point 67 °F
Humidity 78%
Rainfall 0.09 in
Snow Depth Not available.
6:29 AM 7:50 PM
Waning Crescent, 20% visible
METAR KALO 272354Z AUTO 00000KT 10SM FEW039 24/19 A3001 RMK AO2 SLP158 T02390194 10250 20211 52003
Pressure 30.00 in
Visibility 10.0 miles
Clouds Few 3900 ft
Heat Index 75 °F
Dew Point 67 °F
Humidity 78%
Rainfall 0.09 in
Snow Depth Not available.
6:29 AM 7:50 PM
Waning Crescent, 20% visible
METAR KALO 272354Z AUTO 00000KT 10SM FEW039 24/19 A3001 RMK AO2 SLP158 T02390194 10250 20211 52003

10-Day Weather Forecast

Almanac

Astronomy

Aug. 27, 2016 Rise Set
Actual Time
Civil Twilight
Nautical Twilight
Astronomical Twilight
Moon
Length of Visible Light
Length of Day
Tomorrow will be .
, % of the Moon is Illuminated

Today's Extremes

State Highs State Lows

Community

WunderPhotos

Upload Photos

1,935,475 photos uploaded!

WunderBlog® & News

Nearby

Air Quality

  Air Quality AQ Index Pollutant
Not available.

Snow Depth

Station Depth Elevation

Earthquake Activity

City Distance Mag. Time & Date
Minimum magnitude displayed is 2.5.

Coastal Water Temperatures

Place Temperature

Stations

Nearby Weather Stations

Station Location Temp. Windchill Dew Point Humidity Wind Precip. Elev Updated Type
                   

Watches & Warnings

Flood Warning
Issued: 3:20 PM CDT Aug. 27, 2016 – National Weather Service

... Flood Warning remains in effect until early Monday morning...

The Flood Warning continues for
the Cedar River at Cedar Falls... or from the West Fork Cedar
River... to the Cedar Falls-Waterloo city limits.
* Until early Monday morning.
* At 2:45 PM Saturday the stage was 91.3 feet... or 3.3 feet above
flood stage.
* Flood stage is 88.0 feet.
* Moderate flooding is occurring and is forecast to continue.
* Forecast... begin falling and go below flood stage early Monday
morning.
* Impact... at 91.2 feet... water covers portions of lake street.


Lat... Lon 4256 9238 4251 9245 4258 9255 4262 9255
      4262 9241 4256 9238


Rev